sensor_id;sensor_type;location;lat;lon;timestamp;temperature;humidity
46926;DHT22;32667;48.248;-1.700;2023-04-15T00:00:29;10.70;71.30
46926;DHT22;32667;48.248;-1.700;2023-04-15T00:02:58;10.70;71.30
46926;DHT22;32667;48.248;-1.700;2023-04-15T00:05:24;10.70;71.30
46926;DHT22;32667;48.248;-1.700;2023-04-15T00:07:50;10.70;71.90
46926;DHT22;32667;48.248;-1.700;2023-04-15T00:10:16;10.70;71.30
46926;DHT22;32667;48.248;-1.700;2023-04-15T00:12:41;10.70;71.30
46926;DHT22;32667;48.248;-1.700;2023-04-15T00:15:08;10.60;71.30
46926;DHT22;32667;48.248;-1.700;2023-04-15T00:17:34;10.60;71.30
46926;DHT22;32667;48.248;-1.700;2023-04-15T00:20:00;10.60;71.40
46926;DHT22;32667;48.248;-1.700;2023-04-15T00:22:26;10.50;71.50
46926;DHT22;32667;48.248;-1.700;2023-04-15T00:24:52;10.50;71.50
46926;DHT22;32667;48.248;-1.700;2023-04-15T00:27:18;10.40;71.50
46926;DHT22;32667;48.248;-1.700;2023-04-15T00:29:44;10.30;71.60
46926;DHT22;32667;48.248;-1.700;2023-04-15T00:32:13;10.30;71.60
46926;DHT22;32667;48.248;-1.700;2023-04-15T00:34:40;10.30;71.60
46926;DHT22;32667;48.248;-1.700;2023-04-15T00:37:06;10.40;71.70
46926;DHT22;32667;48.248;-1.700;2023-04-15T00:39:31;10.30;71.60
46926;DHT22;32667;48.248;-1.700;2023-04-15T00:41:57;10.30;71.60
46926;DHT22;32667;48.248;-1.700;2023-04-15T00:44:25;10.30;71.60
46926;DHT22;32667;48.248;-1.700;2023-04-15T00:46:51;10.30;71.60
46926;DHT22;32667;48.248;-1.700;2023-04-15T00:49:17;10.30;71.60
46926;DHT22;32667;48.248;-1.700;2023-04-15T00:51:43;10.20;71.60
46926;DHT22;32667;48.248;-1.700;2023-04-15T00:54:09;10.20;71.60
46926;DHT22;32667;48.248;-1.700;2023-04-15T00:56:37;10.20;71.60
46926;DHT22;32667;48.248;-1.700;2023-04-15T00:59:04;10.20;71.60
46926;DHT22;32667;48.248;-1.700;2023-04-15T01:01:36;10.20;71.60
46926;DHT22;32667;48.248;-1.700;2023-04-15T01:04:03;10.20;71.60
46926;DHT22;32667;48.248;-1.700;2023-04-15T01:06:30;10.10;71.60
46926;DHT22;32667;48.248;-1.700;2023-04-15T01:08:57;10.10;71.70
46926;DHT22;32667;48.248;-1.700;2023-04-15T01:11:24;10.00;71.70
46926;DHT22;32667;48.248;-1.700;2023-04-15T01:13:51;10.00;71.80
46926;DHT22;32667;48.248;-1.700;2023-04-15T01:16:18;9.90;71.80
46926;DHT22;32667;48.248;-1.700;2023-04-15T01:18:44;9.90;71.80
46926;DHT22;32667;48.248;-1.700;2023-04-15T01:21:10;9.90;71.90
46926;DHT22;32667;48.248;-1.700;2023-04-15T01:23:38;9.90;71.90
46926;DHT22;32667;48.248;-1.700;2023-04-15T01:26:05;9.90;71.90
46926;DHT22;32667;48.248;-1.700;2023-04-15T01:28:33;9.80;71.90
46926;DHT22;32667;48.248;-1.700;2023-04-15T01:31:09;9.90;71.90
46926;DHT22;32667;48.248;-1.700;2023-04-15T01:33:36;9.90;71.90
46926;DHT22;32667;48.248;-1.700;2023-04-15T01:36:03;9.80;71.80
46926;DHT22;32667;48.248;-1.700;2023-04-15T01:38:30;9.80;71.80
46926;DHT22;32667;48.248;-1.700;2023-04-15T01:40:56;9.80;71.80
46926;DHT22;32667;48.248;-1.700;2023-04-15T01:43:26;9.80;71.80
46926;DHT22;32667;48.248;-1.700;2023-04-15T01:45:54;9.80;71.80
46926;DHT22;32667;48.248;-1.700;2023-04-15T01:48:21;9.80;71.80
46926;DHT22;32667;48.248;-1.700;2023-04-15T01:50:47;9.80;71.90
46926;DHT22;32667;48.248;-1.700;2023-04-15T01:53:14;9.80;71.90
46926;DHT22;32667;48.248;-1.700;2023-04-15T01:55:40;9.70;71.80
46926;DHT22;32667;48.248;-1.700;2023-04-15T01:58:06;9.70;71.90
46926;DHT22;32667;48.248;-1.700;2023-04-15T02:00:35;9.70;71.90
46926;DHT22;32667;48.248;-1.700;2023-04-15T02:03:01;9.70;71.90
46926;DHT22;32667;48.248;-1.700;2023-04-15T02:05:27;9.60;71.90
46926;DHT22;32667;48.248;-1.700;2023-04-15T02:07:52;9.60;72.00
46926;DHT22;32667;48.248;-1.700;2023-04-15T02:10:18;9.60;72.00
46926;DHT22;32667;48.248;-1.700;2023-04-15T02:12:47;9.60;72.00
46926;DHT22;32667;48.248;-1.700;2023-04-15T02:15:12;9.60;72.10
46926;DHT22;32667;48.248;-1.700;2023-04-15T02:17:38;9.60;72.00
46926;DHT22;32667;48.248;-1.700;2023-04-15T02:20:04;9.60;72.00
46926;DHT22;32667;48.248;-1.700;2023-04-15T02:22:30;9.50;72.00
46926;DHT22;32667;48.248;-1.700;2023-04-15T02:24:58;9.50;72.10
46926;DHT22;32667;48.248;-1.700;2023-04-15T02:27:25;9.50;72.10
46926;DHT22;32667;48.248;-1.700;2023-04-15T02:29:50;9.50;72.10
46926;DHT22;32667;48.248;-1.700;2023-04-15T02:32:16;9.40;72.20
46926;DHT22;32667;48.248;-1.700;2023-04-15T02:34:43;9.40;72.20
46926;DHT22;32667;48.248;-1.700;2023-04-15T02:37:10;9.40;72.20
46926;DHT22;32667;48.248;-1.700;2023-04-15T02:39:36;9.30;72.20
46926;DHT22;32667;48.248;-1.700;2023-04-15T02:42:02;9.30;72.10
46926;DHT22;32667;48.248;-1.700;2023-04-15T02:44:29;9.30;72.10
46926;DHT22;32667;48.248;-1.700;2023-04-15T02:46:56;9.30;72.20
46926;DHT22;32667;48.248;-1.700;2023-04-15T02:49:23;9.30;72.20
46926;DHT22;32667;48.248;-1.700;2023-04-15T02:51:49;9.30;72.20
46926;DHT22;32667;48.248;-1.700;2023-04-15T02:54:19;9.30;72.20
46926;DHT22;32667;48.248;-1.700;2023-04-15T02:56:47;9.30;72.20
46926;DHT22;32667;48.248;-1.700;2023-04-15T02:59:14;9.20;72.10
46926;DHT22;32667;48.248;-1.700;2023-04-15T03:01:40;9.20;72.10
46926;DHT22;32667;48.248;-1.700;2023-04-15T03:04:06;9.30;72.20
46926;DHT22;32667;48.248;-1.700;2023-04-15T03:06:33;9.20;72.10
46926;DHT22;32667;48.248;-1.700;2023-04-15T03:09:00;9.20;72.10
46926;DHT22;32667;48.248;-1.700;2023-04-15T03:11:27;9.20;72.20
46926;DHT22;32667;48.248;-1.700;2023-04-15T03:13:53;9.10;72.10
46926;DHT22;32667;48.248;-1.700;2023-04-15T03:16:19;9.10;72.20
46926;DHT22;32667;48.248;-1.700;2023-04-15T03:18:45;9.10;72.20
46926;DHT22;32667;48.248;-1.700;2023-04-15T03:21:11;9.10;72.80
46926;DHT22;32667;48.248;-1.700;2023-04-15T03:23:37;9.10;72.20
46926;DHT22;32667;48.248;-1.700;2023-04-15T03:26:03;9.10;72.30
46926;DHT22;32667;48.248;-1.700;2023-04-15T03:28:29;9.00;72.20
46926;DHT22;32667;48.248;-1.700;2023-04-15T03:30:55;9.00;72.20
46926;DHT22;32667;48.248;-1.700;2023-04-15T03:33:22;9.00;72.30
46926;DHT22;32667;48.248;-1.700;2023-04-15T03:35:49;9.00;72.30
46926;DHT22;32667;48.248;-1.700;2023-04-15T03:38:16;8.90;72.30
46926;DHT22;32667;48.248;-1.700;2023-04-15T03:40:42;8.90;72.40
46926;DHT22;32667;48.248;-1.700;2023-04-15T03:43:07;8.90;72.40
46926;DHT22;32667;48.248;-1.700;2023-04-15T03:45:33;8.90;72.50
46926;DHT22;32667;48.248;-1.700;2023-04-15T03:47:59;8.80;72.50
46926;DHT22;32667;48.248;-1.700;2023-04-15T03:50:25;8.80;72.50
46926;DHT22;32667;48.248;-1.700;2023-04-15T03:52:51;8.70;72.50
46926;DHT22;32667;48.248;-1.700;2023-04-15T03:55:19;8.70;72.70
46926;DHT22;32667;48.248;-1.700;2023-04-15T03:57:45;8.70;72.70
46926;DHT22;32667;48.248;-1.700;2023-04-15T04:00:11;8.60;72.70
46926;DHT22;32667;48.248;-1.700;2023-04-15T04:02:37;8.60;73.30
46926;DHT22;32667;48.248;-1.700;2023-04-15T04:05:03;8.60;72.80
46926;DHT22;32667;48.248;-1.700;2023-04-15T04:07:32;8.60;72.80
46926;DHT22;32667;48.248;-1.700;2023-04-15T04:10:01;8.50;72.70
46926;DHT22;32667;48.248;-1.700;2023-04-15T04:12:28;8.50;72.70
46926;DHT22;32667;48.248;-1.700;2023-04-15T04:14:54;8.50;72.70
46926;DHT22;32667;48.248;-1.700;2023-04-15T04:17:19;8.50;72.80
46926;DHT22;32667;48.248;-1.700;2023-04-15T04:19:46;8.50;72.80
46926;DHT22;32667;48.248;-1.700;2023-04-15T04:22:11;8.40;72.70
46926;DHT22;32667;48.248;-1.700;2023-04-15T04:24:37;8.50;72.70
46926;DHT22;32667;48.248;-1.700;2023-04-15T04:27:03;8.50;72.60
46926;DHT22;32667;48.248;-1.700;2023-04-15T04:29:28;8.50;72.60
46926;DHT22;32667;48.248;-1.700;2023-04-15T04:31:54;8.40;72.60
46926;DHT22;32667;48.248;-1.700;2023-04-15T04:34:22;8.50;72.60
46926;DHT22;32667;48.248;-1.700;2023-04-15T04:36:48;8.50;72.50
46926;DHT22;32667;48.248;-1.700;2023-04-15T04:39:13;8.40;72.40
46926;DHT22;32667;48.248;-1.700;2023-04-15T04:41:39;8.50;72.40
46926;DHT22;32667;48.248;-1.700;2023-04-15T04:44:05;8.50;72.40
46926;DHT22;32667;48.248;-1.700;2023-04-15T04:46:31;8.50;72.40
46926;DHT22;32667;48.248;-1.700;2023-04-15T04:48:57;8.50;72.40
46926;DHT22;32667;48.248;-1.700;2023-04-15T04:51:22;8.50;72.40
46926;DHT22;32667;48.248;-1.700;2023-04-15T04:53:48;8.50;72.40
46926;DHT22;32667;48.248;-1.700;2023-04-15T04:56:14;8.50;72.30
46926;DHT22;32667;48.248;-1.700;2023-04-15T04:58:40;8.50;72.40
46926;DHT22;32667;48.248;-1.700;2023-04-15T05:01:06;8.50;72.40
46926;DHT22;32667;48.248;-1.700;2023-04-15T05:03:33;8.50;72.40
46926;DHT22;32667;48.248;-1.700;2023-04-15T05:05:59;8.50;72.40
46926;DHT22;32667;48.248;-1.700;2023-04-15T05:08:25;8.50;72.30
46926;DHT22;32667;48.248;-1.700;2023-04-15T05:10:50;8.50;72.30
46926;DHT22;32667;48.248;-1.700;2023-04-15T05:13:16;8.50;72.30
46926;DHT22;32667;48.248;-1.700;2023-04-15T05:15:42;8.50;72.20
46926;DHT22;32667;48.248;-1.700;2023-04-15T05:18:08;8.50;72.10
46926;DHT22;32667;48.248;-1.700;2023-04-15T05:20:33;8.60;72.80
46926;DHT22;32667;48.248;-1.700;2023-04-15T05:22:59;8.60;72.10
46926;DHT22;32667;48.248;-1.700;2023-04-15T05:25:26;8.60;72.10
46926;DHT22;32667;48.248;-1.700;2023-04-15T05:27:52;8.60;72.00
46926;DHT22;32667;48.248;-1.700;2023-04-15T05:30:17;8.60;72.00
46926;DHT22;32667;48.248;-1.700;2023-04-15T05:32:43;8.60;71.90
46926;DHT22;32667;48.248;-1.700;2023-04-15T05:35:09;8.70;71.90
46926;DHT22;32667;48.248;-1.700;2023-04-15T05:37:35;8.70;71.90
46926;DHT22;32667;48.248;-1.700;2023-04-15T05:40:01;8.70;71.80
46926;DHT22;32667;48.248;-1.700;2023-04-15T05:42:26;8.80;71.80
46926;DHT22;32667;48.248;-1.700;2023-04-15T05:44:52;8.70;71.80
46926;DHT22;32667;48.248;-1.700;2023-04-15T05:47:18;8.80;71.80
46926;DHT22;32667;48.248;-1.700;2023-04-15T05:49:43;8.80;71.80
46926;DHT22;32667;48.248;-1.700;2023-04-15T05:52:09;8.80;71.70
46926;DHT22;32667;48.248;-1.700;2023-04-15T05:54:35;8.80;71.70
46926;DHT22;32667;48.248;-1.700;2023-04-15T05:57:01;8.90;71.70
46926;DHT22;32667;48.248;-1.700;2023-04-15T05:59:27;8.90;71.60
46926;DHT22;32667;48.248;-1.700;2023-04-15T06:01:55;8.90;71.60
46926;DHT22;32667;48.248;-1.700;2023-04-15T06:04:23;8.90;71.60
46926;DHT22;32667;48.248;-1.700;2023-04-15T06:06:49;9.00;71.60
46926;DHT22;32667;48.248;-1.700;2023-04-15T06:09:15;9.00;71.60
46926;DHT22;32667;48.248;-1.700;2023-04-15T06:11:41;9.00;71.60
46926;DHT22;32667;48.248;-1.700;2023-04-15T06:14:07;9.00;71.50
46926;DHT22;32667;48.248;-1.700;2023-04-15T06:16:35;9.00;71.40
46926;DHT22;32667;48.248;-1.700;2023-04-15T06:19:02;9.10;71.50
46926;DHT22;32667;48.248;-1.700;2023-04-15T06:21:28;9.10;71.40
46926;DHT22;32667;48.248;-1.700;2023-04-15T06:23:55;9.10;71.40
46926;DHT22;32667;48.248;-1.700;2023-04-15T06:26:21;9.10;71.40
46926;DHT22;32667;48.248;-1.700;2023-04-15T06:28:47;9.10;71.40
46926;DHT22;32667;48.248;-1.700;2023-04-15T06:31:13;9.20;71.40
46926;DHT22;32667;48.248;-1.700;2023-04-15T06:33:39;9.20;71.30
46926;DHT22;32667;48.248;-1.700;2023-04-15T06:36:04;9.20;71.30
46926;DHT22;32667;48.248;-1.700;2023-04-15T06:38:30;9.20;71.30
46926;DHT22;32667;48.248;-1.700;2023-04-15T06:40:58;9.30;71.30
46926;DHT22;32667;48.248;-1.700;2023-04-15T06:43:24;9.30;71.20
46926;DHT22;32667;48.248;-1.700;2023-04-15T06:45:50;9.40;71.20
46926;DHT22;32667;48.248;-1.700;2023-04-15T06:48:18;9.40;71.10
46926;DHT22;32667;48.248;-1.700;2023-04-15T06:50:44;9.40;71.10
46926;DHT22;32667;48.248;-1.700;2023-04-15T06:53:09;9.50;71.10
46926;DHT22;32667;48.248;-1.700;2023-04-15T06:55:35;9.50;71.00
46926;DHT22;32667;48.248;-1.700;2023-04-15T06:58:01;9.60;71.00
46926;DHT22;32667;48.248;-1.700;2023-04-15T07:00:27;9.70;70.80
46926;DHT22;32667;48.248;-1.700;2023-04-15T07:02:53;9.80;70.70
46926;DHT22;32667;48.248;-1.700;2023-04-15T07:05:19;9.90;70.60
46926;DHT22;32667;48.248;-1.700;2023-04-15T07:07:45;10.00;70.50
46926;DHT22;32667;48.248;-1.700;2023-04-15T07:10:11;10.10;70.30
46926;DHT22;32667;48.248;-1.700;2023-04-15T07:12:40;10.30;70.20
46926;DHT22;32667;48.248;-1.700;2023-04-15T07:15:06;10.40;70.00
46926;DHT22;32667;48.248;-1.700;2023-04-15T07:17:32;10.50;69.90
46926;DHT22;32667;48.248;-1.700;2023-04-15T07:19:57;10.70;69.70
46926;DHT22;32667;48.248;-1.700;2023-04-15T07:22:24;10.90;69.60
46926;DHT22;32667;48.248;-1.700;2023-04-15T07:24:50;11.00;69.40
46926;DHT22;32667;48.248;-1.700;2023-04-15T07:27:16;11.10;69.40
46926;DHT22;32667;48.248;-1.700;2023-04-15T07:29:44;11.30;69.20
46926;DHT22;32667;48.248;-1.700;2023-04-15T07:32:10;11.40;69.10
46926;DHT22;32667;48.248;-1.700;2023-04-15T07:34:38;11.60;69.00
46926;DHT22;32667;48.248;-1.700;2023-04-15T07:37:04;11.80;68.80
46926;DHT22;32667;48.248;-1.700;2023-04-15T07:39:30;11.90;68.60
46926;DHT22;32667;48.248;-1.700;2023-04-15T07:41:56;12.00;68.60
46926;DHT22;32667;48.248;-1.700;2023-04-15T07:44:24;12.20;68.40
46926;DHT22;32667;48.248;-1.700;2023-04-15T07:46:50;12.30;68.30
46926;DHT22;32667;48.248;-1.700;2023-04-15T07:49:15;12.40;68.30
46926;DHT22;32667;48.248;-1.700;2023-04-15T07:51:43;12.50;68.30
46926;DHT22;32667;48.248;-1.700;2023-04-15T07:54:09;12.70;68.20
46926;DHT22;32667;48.248;-1.700;2023-04-15T07:56:35;12.90;68.00
46926;DHT22;32667;48.248;-1.700;2023-04-15T07:59:00;13.00;67.80
46926;DHT22;32667;48.248;-1.700;2023-04-15T08:01:29;13.00;67.80
46926;DHT22;32667;48.248;-1.700;2023-04-15T08:03:55;13.10;67.90
46926;DHT22;32667;48.248;-1.700;2023-04-15T08:06:21;13.10;67.90
46926;DHT22;32667;48.248;-1.700;2023-04-15T08:08:47;13.10;67.90
46926;DHT22;32667;48.248;-1.700;2023-04-15T08:11:13;13.00;68.00
46926;DHT22;32667;48.248;-1.700;2023-04-15T08:13:38;12.90;68.20
46926;DHT22;32667;48.248;-1.700;2023-04-15T08:16:18;12.90;68.40
46926;DHT22;32667;48.248;-1.700;2023-04-15T08:18:46;12.90;68.60
46926;DHT22;32667;48.248;-1.700;2023-04-15T08:21:11;12.90;68.70
46926;DHT22;32667;48.248;-1.700;2023-04-15T08:23:37;12.80;69.40
46926;DHT22;32667;48.248;-1.700;2023-04-15T08:26:04;12.80;68.90
46926;DHT22;32667;48.248;-1.700;2023-04-15T08:28:30;12.80;68.90
46926;DHT22;32667;48.248;-1.700;2023-04-15T08:30:56;13.00;68.90
46926;DHT22;32667;48.248;-1.700;2023-04-15T08:33:22;13.20;68.60
46926;DHT22;32667;48.248;-1.700;2023-04-15T08:35:48;13.40;68.40
46926;DHT22;32667;48.248;-1.700;2023-04-15T08:38:14;13.60;68.10
46926;DHT22;32667;48.248;-1.700;2023-04-15T08:40:44;13.70;67.90
46926;DHT22;32667;48.248;-1.700;2023-04-15T08:43:14;13.80;67.80
46926;DHT22;32667;48.248;-1.700;2023-04-15T08:45:42;13.90;67.70
46926;DHT22;32667;48.248;-1.700;2023-04-15T08:48:09;13.90;67.70
46926;DHT22;32667;48.248;-1.700;2023-04-15T08:50:39;14.00;67.70
46926;DHT22;32667;48.248;-1.700;2023-04-15T08:53:05;13.90;67.70
46926;DHT22;32667;48.248;-1.700;2023-04-15T08:55:32;13.90;67.90
46926;DHT22;32667;48.248;-1.700;2023-04-15T08:58:01;13.80;68.10
46926;DHT22;32667;48.248;-1.700;2023-04-15T09:00:28;13.80;68.30
46926;DHT22;32667;48.248;-1.700;2023-04-15T09:03:00;13.70;68.30
46926;DHT22;32667;48.248;-1.700;2023-04-15T09:05:26;13.80;68.40
46926;DHT22;32667;48.248;-1.700;2023-04-15T09:07:52;13.70;68.40
46926;DHT22;32667;48.248;-1.700;2023-04-15T09:10:17;13.70;68.60
46926;DHT22;32667;48.248;-1.700;2023-04-15T09:12:45;13.60;68.60
46926;DHT22;32667;48.248;-1.700;2023-04-15T09:15:14;13.50;68.70
46926;DHT22;32667;48.248;-1.700;2023-04-15T09:17:44;13.40;68.90
46926;DHT22;32667;48.248;-1.700;2023-04-15T09:20:12;13.30;69.10
46926;DHT22;32667;48.248;-1.700;2023-04-15T09:22:41;13.30;69.30
46926;DHT22;32667;48.248;-1.700;2023-04-15T09:27:54;13.30;69.20
46926;DHT22;32667;48.248;-1.700;2023-04-15T09:30:21;13.30;69.20
46926;DHT22;32667;48.248;-1.700;2023-04-15T09:32:56;13.30;69.20
46926;DHT22;32667;48.248;-1.700;2023-04-15T09:35:24;13.30;69.10
46926;DHT22;32667;48.248;-1.700;2023-04-15T09:37:50;13.30;69.00
46926;DHT22;32667;48.248;-1.700;2023-04-15T09:40:39;13.40;69.10
46926;DHT22;32667;48.248;-1.700;2023-04-15T09:43:07;13.40;69.00
46926;DHT22;32667;48.248;-1.700;2023-04-15T09:45:34;13.50;68.90
46926;DHT22;32667;48.248;-1.700;2023-04-15T09:50:46;13.60;68.60
46926;DHT22;32667;48.248;-1.700;2023-04-15T09:53:17;13.60;68.60
46926;DHT22;32667;48.248;-1.700;2023-04-15T09:56:04;13.50;68.70
46926;DHT22;32667;48.248;-1.700;2023-04-15T09:58:33;13.50;68.80
46926;DHT22;32667;48.248;-1.700;2023-04-15T10:01:02;13.40;68.90
46926;DHT22;32667;48.248;-1.700;2023-04-15T10:03:30;13.30;69.00
46926;DHT22;32667;48.248;-1.700;2023-04-15T10:05:58;13.30;69.00
46926;DHT22;32667;48.248;-1.700;2023-04-15T10:08:27;13.30;69.20
46926;DHT22;32667;48.248;-1.700;2023-04-15T10:10:53;13.30;69.20
46926;DHT22;32667;48.248;-1.700;2023-04-15T10:13:24;13.40;69.10
46926;DHT22;32667;48.248;-1.700;2023-04-15T10:16:04;13.50;68.90
46926;DHT22;32667;48.248;-1.700;2023-04-15T10:18:33;13.50;68.90
46926;DHT22;32667;48.248;-1.700;2023-04-15T10:21:00;13.60;68.90
46926;DHT22;32667;48.248;-1.700;2023-04-15T10:23:27;13.60;68.60
46926;DHT22;32667;48.248;-1.700;2023-04-15T10:25:53;13.70;68.50
46926;DHT22;32667;48.248;-1.700;2023-04-15T10:28:22;13.80;68.40
46926;DHT22;32667;48.248;-1.700;2023-04-15T10:30:48;13.80;68.40
46926;DHT22;32667;48.248;-1.700;2023-04-15T10:33:16;13.80;68.50
46926;DHT22;32667;48.248;-1.700;2023-04-15T10:35:44;13.80;68.50
46926;DHT22;32667;48.248;-1.700;2023-04-15T10:38:31;13.80;68.60
46926;DHT22;32667;48.248;-1.700;2023-04-15T10:41:23;13.80;68.50
46926;DHT22;32667;48.248;-1.700;2023-04-15T10:46:37;13.80;68.50
46926;DHT22;32667;48.248;-1.700;2023-04-15T10:49:23;13.80;68.50
46926;DHT22;32667;48.248;-1.700;2023-04-15T10:51:56;13.90;68.60
46926;DHT22;32667;48.248;-1.700;2023-04-15T10:59:38;14.00;68.40
46926;DHT22;32667;48.248;-1.700;2023-04-15T11:02:46;14.00;68.40
46926;DHT22;32667;48.248;-1.700;2023-04-15T11:05:17;14.10;68.20
46926;DHT22;32667;48.248;-1.700;2023-04-15T11:12:39;14.20;68.20
46926;DHT22;32667;48.248;-1.700;2023-04-15T11:15:42;14.20;68.10
46926;DHT22;32667;48.248;-1.700;2023-04-15T11:18:25;14.40;68.20
46926;DHT22;32667;48.248;-1.700;2023-04-15T11:20:53;14.40;68.00
46926;DHT22;32667;48.248;-1.700;2023-04-15T11:23:38;14.40;67.90
46926;DHT22;32667;48.248;-1.700;2023-04-15T11:26:13;14.40;68.10
46926;DHT22;32667;48.248;-1.700;2023-04-15T11:28:40;14.40;68.10
46926;DHT22;32667;48.248;-1.700;2023-04-15T11:31:13;14.50;68.10
46926;DHT22;32667;48.248;-1.700;2023-04-15T11:33:58;14.60;67.90
46926;DHT22;32667;48.248;-1.700;2023-04-15T11:36:25;14.70;67.80
46926;DHT22;32667;48.248;-1.700;2023-04-15T11:38:58;14.70;67.70
46926;DHT22;32667;48.248;-1.700;2023-04-15T11:41:24;14.70;67.80
46926;DHT22;32667;48.248;-1.700;2023-04-15T11:43:51;14.70;67.80
46926;DHT22;32667;48.248;-1.700;2023-04-15T11:46:17;14.70;67.80
46926;DHT22;32667;48.248;-1.700;2023-04-15T11:48:44;14.80;67.70
46926;DHT22;32667;48.248;-1.700;2023-04-15T11:51:11;14.90;67.70
46926;DHT22;32667;48.248;-1.700;2023-04-15T11:53:45;15.00;67.70
46926;DHT22;32667;48.248;-1.700;2023-04-15T11:56:22;15.10;67.40
46926;DHT22;32667;48.248;-1.700;2023-04-15T11:58:56;15.30;67.20
46926;DHT22;32667;48.248;-1.700;2023-04-15T12:01:41;15.30;67.10
46926;DHT22;32667;48.248;-1.700;2023-04-15T12:04:15;15.30;67.20
46926;DHT22;32667;48.248;-1.700;2023-04-15T12:06:44;15.30;67.30
46926;DHT22;32667;48.248;-1.700;2023-04-15T12:09:16;15.30;67.30
46926;DHT22;32667;48.248;-1.700;2023-04-15T12:11:45;15.30;67.30
46926;DHT22;32667;48.248;-1.700;2023-04-15T12:16:43;15.30;67.40
46926;DHT22;32667;48.248;-1.700;2023-04-15T12:19:12;15.30;67.40
46926;DHT22;32667;48.248;-1.700;2023-04-15T12:21:41;15.40;67.30
46926;DHT22;32667;48.248;-1.700;2023-04-15T12:24:10;15.40;67.30
46926;DHT22;32667;48.248;-1.700;2023-04-15T12:26:45;15.40;67.40
46926;DHT22;32667;48.248;-1.700;2023-04-15T12:29:12;15.60;67.40
46926;DHT22;32667;48.248;-1.700;2023-04-15T12:32:02;15.70;67.10
46926;DHT22;32667;48.248;-1.700;2023-04-15T12:34:30;15.80;66.80
46926;DHT22;32667;48.248;-1.700;2023-04-15T12:36:58;15.90;66.80
46926;DHT22;32667;48.248;-1.700;2023-04-15T12:39:25;16.00;66.60
46926;DHT22;32667;48.248;-1.700;2023-04-15T12:41:52;16.20;66.50
46926;DHT22;32667;48.248;-1.700;2023-04-15T12:44:18;16.20;66.40
46926;DHT22;32667;48.248;-1.700;2023-04-15T12:46:45;16.20;66.40
46926;DHT22;32667;48.248;-1.700;2023-04-15T12:49:11;16.30;66.60
46926;DHT22;32667;48.248;-1.700;2023-04-15T12:51:39;16.30;66.50
46926;DHT22;32667;48.248;-1.700;2023-04-15T12:54:05;16.50;66.40
46926;DHT22;32667;48.248;-1.700;2023-04-15T12:56:33;16.60;66.10
46926;DHT22;32667;48.248;-1.700;2023-04-15T12:58:59;16.80;66.00
46926;DHT22;32667;48.248;-1.700;2023-04-15T13:01:25;16.90;65.80
46926;DHT22;32667;48.248;-1.700;2023-04-15T13:03:51;17.10;65.70
46926;DHT22;32667;48.248;-1.700;2023-04-15T13:06:17;17.10;65.50
46926;DHT22;32667;48.248;-1.700;2023-04-15T13:08:43;17.20;65.60
46926;DHT22;32667;48.248;-1.700;2023-04-15T13:11:09;17.40;65.60
46926;DHT22;32667;48.248;-1.700;2023-04-15T13:13:35;17.50;65.40
46926;DHT22;32667;48.248;-1.700;2023-04-15T13:16:01;17.70;65.10
46926;DHT22;32667;48.248;-1.700;2023-04-15T13:18:27;17.90;64.90
46926;DHT22;32667;48.248;-1.700;2023-04-15T13:20:53;18.10;64.80
46926;DHT22;32667;48.248;-1.700;2023-04-15T13:23:20;18.20;64.70
46926;DHT22;32667;48.248;-1.700;2023-04-15T13:25:46;18.20;64.70
46926;DHT22;32667;48.248;-1.700;2023-04-15T13:28:12;18.20;64.90
46926;DHT22;32667;48.248;-1.700;2023-04-15T13:30:38;18.20;64.90
46926;DHT22;32667;48.248;-1.700;2023-04-15T13:33:04;18.10;65.00
46926;DHT22;32667;48.248;-1.700;2023-04-15T13:35:31;18.10;65.40
46926;DHT22;32667;48.248;-1.700;2023-04-15T13:37:57;18.10;65.50
46926;DHT22;32667;48.248;-1.700;2023-04-15T13:40:23;18.20;65.40
46926;DHT22;32667;48.248;-1.700;2023-04-15T13:42:50;18.20;65.30
46926;DHT22;32667;48.248;-1.700;2023-04-15T13:45:16;18.30;65.50
46926;DHT22;32667;48.248;-1.700;2023-04-15T13:47:42;18.40;65.20
46926;DHT22;32667;48.248;-1.700;2023-04-15T13:50:08;18.60;65.00
46926;DHT22;32667;48.248;-1.700;2023-04-15T13:52:34;18.60;65.00
46926;DHT22;32667;48.248;-1.700;2023-04-15T13:54:59;18.70;65.00
46926;DHT22;32667;48.248;-1.700;2023-04-15T13:57:25;18.80;64.90
46926;DHT22;32667;48.248;-1.700;2023-04-15T13:59:51;19.00;64.80
46926;DHT22;32667;48.248;-1.700;2023-04-15T14:02:19;19.00;64.60
46926;DHT22;32667;48.248;-1.700;2023-04-15T14:04:45;19.10;64.60
46926;DHT22;32667;48.248;-1.700;2023-04-15T14:07:11;19.20;64.60
46926;DHT22;32667;48.248;-1.700;2023-04-15T14:09:37;19.30;64.50
46926;DHT22;32667;48.248;-1.700;2023-04-15T14:12:03;19.30;64.40
46926;DHT22;32667;48.248;-1.700;2023-04-15T14:14:29;19.30;64.50
46926;DHT22;32667;48.248;-1.700;2023-04-15T14:16:55;19.20;64.80
46926;DHT22;32667;48.248;-1.700;2023-04-15T14:19:22;19.10;65.00
46926;DHT22;32667;48.248;-1.700;2023-04-15T14:21:48;19.00;65.30
46926;DHT22;32667;48.248;-1.700;2023-04-15T14:24:13;18.90;65.40
46926;DHT22;32667;48.248;-1.700;2023-04-15T14:26:39;19.00;65.40
46926;DHT22;32667;48.248;-1.700;2023-04-15T14:29:08;19.00;65.30
46926;DHT22;32667;48.248;-1.700;2023-04-15T14:31:34;19.00;65.10
46926;DHT22;32667;48.248;-1.700;2023-04-15T14:33:59;18.80;65.50
46926;DHT22;32667;48.248;-1.700;2023-04-15T14:36:25;18.80;65.70
46926;DHT22;32667;48.248;-1.700;2023-04-15T14:38:51;18.90;65.70
46926;DHT22;32667;48.248;-1.700;2023-04-15T14:41:19;19.00;65.50
46926;DHT22;32667;48.248;-1.700;2023-04-15T14:43:46;19.10;65.40
46926;DHT22;32667;48.248;-1.700;2023-04-15T14:46:12;19.10;65.20
46926;DHT22;32667;48.248;-1.700;2023-04-15T14:48:39;19.10;65.20
46926;DHT22;32667;48.248;-1.700;2023-04-15T14:51:05;19.10;65.30
46926;DHT22;32667;48.248;-1.700;2023-04-15T14:53:33;19.10;65.50
46926;DHT22;32667;48.248;-1.700;2023-04-15T14:55:59;19.00;65.50
46926;DHT22;32667;48.248;-1.700;2023-04-15T14:58:24;19.10;65.50
46926;DHT22;32667;48.248;-1.700;2023-04-15T15:00:50;19.30;65.30
46926;DHT22;32667;48.248;-1.700;2023-04-15T15:03:16;19.30;65.10
46926;DHT22;32667;48.248;-1.700;2023-04-15T15:05:44;19.30;65.10
46926;DHT22;32667;48.248;-1.700;2023-04-15T15:08:11;19.30;65.10
46926;DHT22;32667;48.248;-1.700;2023-04-15T15:10:37;19.30;65.30
46926;DHT22;32667;48.248;-1.700;2023-04-15T15:13:07;19.30;65.30
46926;DHT22;32667;48.248;-1.700;2023-04-15T15:15:34;19.30;65.30
46926;DHT22;32667;48.248;-1.700;2023-04-15T15:18:01;19.10;65.40
46926;DHT22;32667;48.248;-1.700;2023-04-15T15:20:28;19.10;65.70
46926;DHT22;32667;48.248;-1.700;2023-04-15T15:22:54;19.10;65.80
46926;DHT22;32667;48.248;-1.700;2023-04-15T15:25:20;19.10;66.10
46926;DHT22;32667;48.248;-1.700;2023-04-15T15:27:46;19.20;65.60
46926;DHT22;32667;48.248;-1.700;2023-04-15T15:30:12;19.10;65.60
46926;DHT22;32667;48.248;-1.700;2023-04-15T15:32:39;19.10;65.70
46926;DHT22;32667;48.248;-1.700;2023-04-15T15:35:05;19.00;65.70
46926;DHT22;32667;48.248;-1.700;2023-04-15T15:37:31;19.00;65.80
46926;DHT22;32667;48.248;-1.700;2023-04-15T15:39:57;18.90;65.80
46926;DHT22;32667;48.248;-1.700;2023-04-15T15:42:24;18.80;66.00
46926;DHT22;32667;48.248;-1.700;2023-04-15T15:44:52;18.60;66.30